Latest Weather Observations for Point Avoid

IDS60801

Issued at 5:31 pm CDT Thursday 23 November 2017 (issued every 30 minutes, with the page automatically refreshed every 10 minutes)

About weather observations | Map of weather stations | Latest weather observations for SA | Other Formats
Station Details ID: 018230 Name: POINT AVOID Lat: -34.67 Lon: 135.34 Height: 35.0 m
Data from the previous 72 hours. | See also: Recent months at Point Avoid
Date/Time
CDT
Temp
°C
App
Temp
°C
Dew
Point
°C
Rel
Hum
%
Delta-T
°C
Wind Press
QNH
hPa
Press
MSL
hPa
Rain since
9am
mm
Dir  Spd
km/h
Gust
km/h
Spd
kts
Gust
kts
23/05:30pm 18.7 16.1 15.9 84 1.7 SSE 24 32 13 17 1009.8 1009.7 0.2
23/05:00pm 18.8 15.6 16.2 85 1.6 S 28 37 15 20 1009.7 1009.6 0.2
23/04:30pm 19.5 16.3 16.3 82 1.9 S 28 33 15 18 1009.4 1009.4 0.2
23/04:00pm 20.2 17.5 16.6 80 2.2 S 26 32 14 17 1009.4 1009.4 0.2
23/03:30pm 19.5 16.5 14.7 74 2.8 SSW 24 32 13 17 1009.2 1009.2 0.2
23/03:00pm 20.2 18.0 14.8 71 3.2 SSW 20 26 11 14 1009.4 1009.4 0.2
23/02:30pm 20.5 19.4 14.2 67 3.7 S 13 17 7 9 1009.7 1009.6 0.2
23/02:00pm 19.5 18.4 14.3 72 3.0 SSE 13 17 7 9 1010.0 1009.9 0.2
23/01:30pm 19.6 18.1 13.1 66 3.7 SE 13 17 7 9 1010.2 1010.1 0.2
23/01:00pm 19.6 19.3 15.5 77 2.4 SSE 11 15 6 8 1010.3 1010.2 0.2
23/12:30pm 18.9 18.1 14.0 73 2.8 SE 11 15 6 8 1010.3 1010.2 0.2
23/12:00pm 18.9 17.2 13.7 72 3.0 SSE 15 19 8 10 1010.4 1010.3 0.0
23/11:30am 18.8 18.1 16.4 86 1.4 S 15 19 8 10 1010.4 1010.3 0.0
23/11:00am 18.1 17.8 15.5 85 1.5 SSE 11 15 6 8 1010.4 1010.3 0.0
23/10:30am 18.1 18.8 15.7 86 1.4 S 6 13 3 7 1010.5 1010.4 0.0
23/10:00am 17.0 17.8 15.9 93 0.6 NNW 6 7 3 4 1010.5 1010.4 0.0
23/09:30am 16.9 18.0 16.7 99 0.1 N 6 11 3 6 1010.4 1010.3 0.0
23/09:00am 16.5 16.6 16.5 100 0.0 N 11 15 6 8 1010.2 1010.1 33.0
23/08:30am 16.4 16.8 16.4 100 0.0 N 9 11 5 6 1009.5 1009.5 33.0
23/08:00am 16.2 16.9 16.2 100 0.0 N 7 9 4 5 1009.3 1009.3 33.0
23/07:30am 15.9 16.7 15.9 100 0.0 N 6 9 3 5 1009.3 1009.3 33.0
23/07:00am 16.0 16.7 16.0 100 0.0 NNW 7 13 4 7 1009.4 1009.4 32.8
23/06:30am 14.9 15.7 14.9 100 0.0 N 4 6 2 3 1008.2 1008.2 32.6
23/06:00am 15.9 15.8 15.9 100 0.0 E 11 17 6 9 1008.3 1008.3 32.0
23/05:30am 15.5 16.6 15.5 100 0.0 NNE 4 7 2 4 1007.6 1007.6 31.2
23/05:00am 15.6 16.7 15.6 100 0.0 NW 4 7 2 4 1008.0 1008.0 30.6
23/04:30am 15.8 14.5 15.8 100 0.0 NNE 17 30 9 16 1008.6 1008.6 28.6
23/04:00am 15.5 16.0 15.5 100 0.0 NNW 7 11 4 6 1007.9 1007.9 26.8
23/03:30am 15.9 15.4 15.9 100 0.0 WNW 13 17 7 9 1007.8 1007.8 24.4
23/03:00am 15.9 15.8 15.9 100 0.0 NW 11 15 6 8 1008.4 1008.4 23.2
23/02:30am 15.9 15.8 15.9 100 0.0 WNW 11 19 6 10 1008.3 1008.3 22.4
23/02:00am 15.8 15.6 15.8 100 0.0 WSW 11 15 6 8 1008.2 1008.2 22.0
23/01:30am 16.0 15.9 16.0 100 0.0 W 11 17 6 9 1008.6 1008.6 21.4
23/01:00am 16.4 16.8 16.4 100 0.0 NW 9 19 5 10 1009.0 1009.0 20.6
23/12:30am 16.3 17.3 16.3 100 0.0 NNE 6 9 3 5 1009.3 1009.3 20.6
23/12:00am 16.2 16.9 16.2 100 0.0 N 7 13 4 7 1009.3 1009.3 20.4
 
Date/Time
CDT
Temp
°C
App
Temp
°C
Dew
Point
°C
Rel
Hum
%
Delta-T
°C
Wind Press
QNH
hPa
Press
MSL
hPa
Rain since
9am
mm
Dir  Spd
km/h
Gust
km/h
Spd
kts
Gust
kts
22/11:41pm 15.9 16.5 15.9 100 0.0 NNE 7 20 4 11 1007.6 1007.6 20.2
22/11:30pm 16.0 16.3 16.0 100 0.0 ENE 9 15 5 8 1009.8 1009.7 20.0
22/11:00pm 16.4 15.3 16.4 100 0.0 ENE 17 26 9 14 1009.1 1009.1 18.4
22/10:30pm 16.8 15.5 16.8 100 0.0 E 19 24 10 13 1009.2 1009.2 15.2
22/10:00pm 16.7 14.0 16.7 100 0.0 ESE 26 35 14 19 1008.6 1008.6 12.4
22/09:58pm 16.7 13.7 16.7 100 0.0 ESE 28 35 15 19 1008.8 1008.8 12.4
22/09:30pm 17.0 18.3 17.0 100 0.0 ENE 6 9 3 5 1009.5 1009.5 10.2
22/09:00pm 17.1 18.2 17.1 100 0.0 NNW 7 9 4 5 1010.0 1009.9 7.8
22/08:30pm 17.3 18.5 16.8 97 0.3 W 6 9 3 5 1008.7 1008.7 2.2
22/08:00pm 17.5 16.5 16.7 95 0.5 NW 17 30 9 16 1009.4 1009.4 1.8
22/07:30pm 17.6 16.9 16.5 93 0.7 WNW 15 19 8 10 1008.5 1008.5 1.8
22/07:00pm 18.3 18.0 16.5 89 1.1 WNW 13 19 7 10 1008.1 1008.1 1.8
22/06:30pm 19.3 18.7 16.7 85 1.6 WNW 15 19 8 10 1007.7 1007.7 1.8
22/06:00pm 19.0 17.5 16.8 87 1.3 WNW 20 26 11 14 1007.5 1007.5 1.8
22/05:30pm 20.3 19.8 17.9 86 1.5 WNW 17 20 9 11 1007.4 1007.4 1.8
22/05:00pm 20.2 20.9 18.0 87 1.4 NW 11 17 6 9 1007.4 1007.4 1.8
22/04:30pm 19.5 19.3 17.5 88 1.2 WNW 15 20 8 11 1007.7 1007.7 1.8
22/04:00pm 20.9 20.8 16.9 78 2.4 N 13 17 7 9 1007.8 1007.8 1.8
22/03:30pm 20.4 20.5 17.4 83 1.8 N 13 17 7 9 1008.1 1008.1 1.8
22/03:00pm 20.0 18.9 17.2 84 1.7 N 19 24 10 13 1008.7 1008.7 1.8
22/02:30pm 20.1 18.1 17.3 84 1.7 NNE 24 32 13 17 1008.9 1008.9 1.2
22/02:00pm 20.8 17.6 16.4 76 2.7 NNE 28 39 15 21 1009.0 1009.0 1.0
22/01:30pm 21.8 18.7 16.5 72 3.2 NNE 28 41 15 22 1009.3 1009.3 0.8
22/01:00pm 21.7 18.2 16.6 73 3.1 NNE 30 39 16 21 1009.5 1009.5 0.8
22/12:30pm 21.8 20.1 17.2 75 2.8 NNE 22 32 12 17 1009.4 1009.4 0.8
22/12:00pm 20.7 18.9 16.9 79 2.3 NNE 22 30 12 16 1009.5 1009.5 0.8
22/11:30am 20.3 17.8 17.1 82 2.0 NE 26 37 14 20 1008.8 1008.8 0.8
22/11:00am 19.9 18.0 17.7 87 1.4 NE 24 35 13 19 1008.7 1008.7 0.8
22/10:30am 19.2 17.8 17.0 87 1.3 NE 20 43 11 23 1008.6 1008.6 0.8
22/10:00am 18.1 16.7 17.1 94 0.6 ENE 20 24 11 13 1009.3 1009.3 0.8
22/09:30am 18.1 17.3 17.0 93 0.7 NE 17 28 9 15 1010.4 1010.3 0.6
22/09:00am 17.9 16.7 17.4 97 0.3 ENE 20 26 11 14 1009.5 1009.5 -
22/08:30am 17.2 14.6 16.9 98 0.2 ESE 26 35 14 19 1010.5 1010.4 -
22/08:00am 17.0 14.5 17.0 100 0.0 ESE 26 33 14 18 1010.6 1010.5 -
22/07:30am 17.0 14.5 17.0 100 0.0 SE 26 33 14 18 1010.6 1010.5 -
22/07:00am 16.9 13.0 16.4 97 0.3 S 32 41 17 22 1010.0 1009.9 -
22/06:30am 17.3 15.8 16.3 94 0.6 S 19 28 10 15 1010.6 1010.5 -
22/06:00am 17.3 14.4 16.2 93 0.7 S 26 35 14 19 1009.4 1009.4 -
22/05:30am 17.6 14.6 15.9 90 1.0 SSW 26 35 14 19 1008.6 1008.6 -
22/05:00am 17.8 16.1 16.3 91 0.9 SE 20 28 11 15 1007.7 1007.7 -
22/04:30am 18.1 15.5 15.9 87 1.3 SSE 24 37 13 20 1007.6 1007.6 -
22/04:00am 19.2 17.1 15.3 78 2.3 SSE 20 24 11 13 1007.5 1007.5 -
22/03:30am 19.8 18.1 14.6 72 3.0 SSE 17 20 9 11 1007.7 1007.7 -
22/03:00am 20.1 18.3 14.5 70 3.3 SSE 17 22 9 12 1007.0 1007.0 0.0
22/02:30am 20.0 17.9 14.6 71 3.2 SSE 19 24 10 13 1006.8 1006.8 -
22/02:00am 20.5 18.2 14.6 69 3.5 SSW 20 30 11 16 1007.0 1007.0 -
22/01:30am 20.6 18.4 14.5 68 3.6 SSW 19 28 10 15 1007.1 1007.1 -
22/01:00am 23.1 21.3 12.1 50 6.2 W 13 20 7 11 1007.4 1007.4 -
22/12:30am 25.7 22.9 9.9 37 8.8 WNW 15 26 8 14 1007.1 1007.1 -
22/12:00am 29.4 23.2 6.1 23 12.4 NNE 28 39 15 21 1006.6 1006.6 -
 
Date/Time
CDT
Temp
°C
App
Temp
°C
Dew
Point
°C
Rel
Hum
%
Delta-T
°C
Wind Press
QNH
hPa
Press
MSL
hPa
Rain since
9am
mm
Dir  Spd
km/h
Gust
km/h
Spd
kts
Gust
kts
21/11:30pm 29.0 23.6 6.4 24 12.0 NE 24 37 13 20 1006.6 1006.6 -
21/11:00pm 28.2 24.0 5.7 24 11.7 NE 17 24 9 13 1006.9 1006.9 -
21/10:30pm 28.5 24.2 5.4 23 12.0 NE 17 22 9 12 1007.2 1007.2 -
21/10:00pm 28.5 24.7 6.0 24 11.8 NE 15 17 8 9 1007.3 1007.3 -
21/09:30pm 28.6 24.5 6.1 24 11.9 ENE 17 20 9 11 1007.3 1007.3 -
21/09:00pm 25.3 23.4 10.4 39 8.3 ESE 11 13 6 7 1007.3 1007.3 0.0
21/08:30pm 29.8 26.9 6.5 23 12.5 ENE 11 17 6 9 1007.5 1007.5 -
21/08:00pm 30.5 26.4 6.4 22 12.9 ENE 17 26 9 14 1007.5 1007.5 -
21/07:30pm 31.4 27.0 6.5 21 13.4 ENE 19 28 10 15 1007.4 1007.4 -
21/07:00pm 32.7 28.3 7.5 21 13.9 ENE 20 28 11 15 1007.3 1007.3 -
21/06:30pm 32.1 28.1 8.4 23 13.2 E 19 28 10 15 1007.1 1007.1 -
21/06:00pm 34.1 30.0 8.0 20 14.6 ENE 19 30 10 16 1007.4 1007.4 -
21/05:30pm 31.8 28.4 10.5 27 12.3 ESE 19 24 10 13 1007.7 1007.7 -
21/05:00pm 33.5 29.7 8.9 22 13.9 ENE 19 30 10 16 1007.8 1007.8 -
21/04:30pm 31.3 29.0 10.6 28 11.9 ESE 13 28 7 15 1008.1 1008.1 -
21/04:00pm 27.5 24.6 12.3 39 8.8 SE 19 24 10 13 1008.4 1008.4 -
21/03:30pm 28.6 25.5 11.6 34 9.8 SSE 19 32 10 17 1008.3 1008.3 -
21/03:00pm 30.2 27.5 11.7 32 10.8 SSE 17 20 9 11 1008.7 1008.7 -
21/02:00pm 31.3 29.0 10.6 28 11.9 WNW 13 20 7 11 1008.9 1008.9 0.0
21/01:30pm 35.4 31.4 9.0 20 15.1 NW 20 26 11 14 1009.1 1009.1 0.0
21/01:00pm 31.9 27.6 10.6 27 12.3 NW 24 32 13 17 1009.7 1009.6 0.0
21/12:30pm 32.0 28.8 11.2 28 12.1 NW 19 26 10 14 1010.2 1010.1 0.0
21/12:00pm 31.0 28.2 11.4 30 11.4 NNW 17 26 9 14 1010.5 1010.4 0.0
21/11:30am 32.0 28.6 10.7 27 12.3 NNW 19 28 10 15 1010.7 1010.6 0.0
21/11:00am 31.6 27.2 10.3 27 12.2 NNW 24 32 13 17 1010.8 1010.7 0.0
21/10:30am 30.6 26.6 10.5 29 11.5 N 22 30 12 16 1010.9 1010.8 0.0
21/10:00am 30.8 26.2 9.6 27 12.0 N 24 33 13 18 1010.9 1010.8 0.0
21/09:30am 30.5 25.6 9.9 28 11.7 N 26 35 14 19 1010.9 1010.8 0.0
21/09:00am 30.1 25.9 9.6 28 11.5 NNE 22 35 12 19 1011.0 1010.9 0.0
21/08:30am 28.9 25.4 10.1 31 10.6 NNE 19 30 10 16 1010.8 1010.7 0.0
21/08:00am 27.1 24.6 11.2 37 9.1 NNE 15 20 8 11 1010.7 1010.6 0.0
21/07:30am 25.3 22.7 10.7 40 8.2 NE 15 19 8 10 1010.6 1010.5 0.0
21/07:00am 25.3 22.2 10.4 39 8.3 NE 17 20 9 11 1010.4 1010.3 0.0
21/06:30am 24.6 21.0 10.5 41 7.8 NE 20 26 11 14 1010.1 1010.0 0.0
21/06:00am 23.6 20.6 10.6 44 7.2 ENE 17 22 9 12 1009.7 1009.6 0.0
21/05:30am 23.7 20.3 10.4 43 7.4 ENE 19 24 10 13 1009.5 1009.5 0.0
21/05:00am 24.5 21.3 10.0 40 8.0 NE 17 20 9 11 1009.4 1009.4 0.0
21/04:30am 24.8 21.7 10.3 40 8.1 ENE 17 24 9 13 1009.3 1009.3 0.0
21/04:00am 24.8 22.0 9.9 39 8.2 ENE 15 19 8 10 1009.2 1009.2 0.0
21/03:30am 24.6 21.4 10.1 40 8.0 ENE 17 20 9 11 1009.3 1009.3 0.0
21/03:00am 24.8 21.6 9.9 39 8.2 ENE 17 20 9 11 1009.5 1009.5 0.0
21/02:30am 24.9 21.7 10.0 39 8.2 ENE 17 22 9 12 1009.7 1009.6 0.0
21/02:00am 24.8 22.3 11.0 42 7.7 ENE 15 20 8 11 1009.9 1009.8 0.0
21/01:30am 25.6 22.5 10.2 38 8.6 NE 17 20 9 11 1010.1 1010.0 0.0
21/01:00am 26.1 22.6 10.3 37 8.8 NE 19 26 10 14 1010.4 1010.3 0.0
21/12:30am 26.0 22.5 10.2 37 8.8 NE 19 26 10 14 1010.5 1010.4 0.0
21/12:00am 26.1 22.6 10.3 37 8.8 NE 19 24 10 13 1010.6 1010.5 0.0
 
Date/Time
CDT
Temp
°C
App
Temp
°C
Dew
Point
°C
Rel
Hum
%
Delta-T
°C
Wind Press
QNH
hPa
Press
MSL
hPa
Rain since
9am
mm
Dir  Spd
km/h
Gust
km/h
Spd
kts
Gust
kts
20/11:30pm 26.4 22.8 10.5 37 8.9 NE 20 24 11 13 1010.6 1010.5 0.0
20/11:00pm 26.7 22.3 10.4 36 9.1 NE 24 32 13 17 1010.4 1010.3 0.0
20/10:30pm 26.4 22.4 10.5 37 8.9 ENE 22 32 12 17 1010.4 1010.3 0.0
20/10:00pm 25.4 22.3 11.6 42 7.8 E 19 24 10 13 1010.4 1010.3 0.0
20/09:30pm 25.3 22.5 12.5 45 7.4 E 19 24 10 13 1010.1 1010.0 0.0
20/09:00pm 21.2 19.8 14.6 66 3.9 SE 15 19 8 10 1010.0 1009.9 0.0
20/08:30pm 22.6 20.7 13.1 55 5.5 SE 15 22 8 12 1009.7 1009.6 0.0
20/08:26pm 23.7 21.4 13.0 51 6.2 ESE 17 22 9 12 1009.7 1009.6 0.0
20/08:00pm 29.1 25.7 10.7 32 10.5 E 19 28 10 15 1009.5 1009.5 0.0
20/07:55pm 27.9 25.0 11.0 35 9.6 E 17 24 9 13 1009.4 1009.4 0.0
20/07:30pm 22.9 22.6 15.5 63 4.4 SE 11 17 6 9 1009.3 1009.3 0.0
20/07:00pm 21.4 19.7 15.7 70 3.4 SSE 19 22 10 12 1009.0 1009.0 0.0
20/06:30pm 22.1 19.9 15.9 68 3.7 SSE 22 26 12 14 1009.0 1009.0 0.0
20/06:00pm 22.8 21.0 15.9 65 4.2 SSE 20 24 11 13 1009.0 1009.0 0.0

Other Formats:

Comma delimited format used in spreadsheet applications
http://www.bom.gov.au/fwo/IDS60801/IDS60801.95649.axf

JavaScript Object Notation format (JSON) in row-major order
http://www.bom.gov.au/fwo/IDS60801/IDS60801.95649.json